createdAt,value
2019-04-01T00:07:39.047Z,17.4
2019-04-01T00:24:22.952Z,17.4
2019-04-01T00:41:06.856Z,17.4
2019-04-01T00:57:50.641Z,17.4
2019-04-01T01:14:34.395Z,17.4
2019-04-01T01:31:18.230Z,17.4
2019-04-01T01:48:01.950Z,17.4
2019-04-01T02:04:45.753Z,17.4
2019-04-01T02:21:29.765Z,17.4
2019-04-01T02:38:13.088Z,17.4
2019-04-01T02:54:56.810Z,17.1
2019-04-01T03:11:40.511Z,17.1
2019-04-01T03:28:24.233Z,17.1
2019-04-01T03:45:08.060Z,17.1
2019-04-01T04:01:51.726Z,17.1
2019-04-01T04:18:35.442Z,17.1
2019-04-01T04:35:19.155Z,17.1
2019-04-01T04:52:04.549Z,17.1
2019-04-01T05:08:46.841Z,17.1
2019-04-01T05:25:32.027Z,17.4
2019-04-01T05:42:14.656Z,17.4
2019-04-01T05:58:58.616Z,17.4
2019-04-01T06:15:42.495Z,17.8
2019-04-01T06:32:26.680Z,17.8
2019-04-01T06:49:11.609Z,18.1
2019-04-01T07:05:56.600Z,18.4
2019-04-01T07:22:41.586Z,18.4
2019-04-01T07:39:26.727Z,18.7
2019-04-01T17:20:36.594Z,21.0
2019-04-01T17:37:23.947Z,20.6
2019-04-01T17:54:22.013Z,20.3
2019-04-01T18:11:02.482Z,20.3
2019-04-01T18:27:47.303Z,20.3
2019-04-01T18:44:37.263Z,20.3
2019-04-01T19:01:22.766Z,20.3
2019-04-01T19:18:11.253Z,20.0
2019-04-01T19:34:57.889Z,20.0
2019-04-01T19:51:45.721Z,20.0
2019-04-01T20:08:32.463Z,20.0
2019-04-01T20:25:19.267Z,20.0
2019-04-01T20:42:07.315Z,20.0
2019-04-01T20:58:52.461Z,19.7
2019-04-01T21:15:38.943Z,19.7
2019-04-01T21:32:25.266Z,19.7
2019-04-01T21:49:11.685Z,19.7
2019-04-01T22:05:57.769Z,19.7
2019-04-01T22:22:43.829Z,19.7
2019-04-01T22:39:29.816Z,19.4
2019-04-01T22:56:15.665Z,19.4
2019-04-01T23:13:01.425Z,19.4
2019-04-01T23:29:47.273Z,19.4
2019-04-01T23:46:32.758Z,19.0
